Time;durP1;ratioP1;P1;durP2;ratioP2;P2;SDS_P1;SDS_P2;PMS_P1;PMS_P2;Temp;Humidity;BMP_temperature;BMP_pressure;BME280_temperature;BME280_humidity;BME280_pressure;Samples;Min_cycle;Max_cycle;Signal;HPM_P1;HPM_P2
2023/01/08 00:01:32;;;;;;;5.80;3.70;;;;;;;10.16;89.22;99199.09;5100311;28;20836;-68
2023/01/08 00:04:01;;;;;;;5.60;3.73;;;;;;;10.05;90.44;99207.38;5110889;28;20470;-67
2023/01/08 00:06:28;;;;;;;3.57;3.23;;;;;;;10.07;90.26;99206.25;5101129;28;20467;-67
2023/01/08 00:08:54;;;;;;;3.60;3.20;;;;;;;10.05;90.38;99200.25;5101173;28;20431;-66
2023/01/08 00:11:21;;;;;;;3.77;3.03;;;;;;;10.06;90.40;99191.22;5100608;28;21003;-67
2023/01/08 00:13:47;;;;;;;3.83;3.07;;;;;;;10.21;89.81;99202.09;5101396;28;20475;-67
2023/01/08 00:16:16;;;;;;;3.60;3.00;;;;;;;10.09;90.59;99195.41;5100062;28;20474;-67
2023/01/08 00:18:42;;;;;;;3.10;2.80;;;;;;;10.15;90.87;99194.72;5101154;28;20463;-67
2023/01/08 00:21:10;;;;;;;3.47;2.30;;;;;;;10.09;90.50;99214.94;5100111;28;21088;-67
2023/01/08 00:23:37;;;;;;;4.23;3.07;;;;;;;10.17;90.12;99208.75;5101747;28;20471;-66
2023/01/08 00:26:05;;;;;;;3.97;2.93;;;;;;;10.33;90.19;99208.00;5100153;28;20886;-66
2023/01/08 00:28:32;;;;;;;5.43;3.53;;;;;;;10.21;90.26;99202.09;5085265;28;20444;-68
2023/01/08 00:31:00;;;;;;;5.23;2.83;;;;;;;10.26;89.50;99199.78;5100276;28;20478;-70
2023/01/08 00:33:26;;;;;;;3.67;2.97;;;;;;;10.28;89.57;99205.78;5101315;28;20448;-69
2023/01/08 00:35:53;;;;;;;3.27;2.97;;;;;;;10.24;89.91;99195.59;5100456;28;20932;-69
2023/01/08 00:38:25;;;;;;;4.13;3.53;;;;;;;10.23;90.14;99193.94;5100243;28;20479;-67
2023/01/08 00:40:52;;;;;;;3.67;2.73;;;;;;;10.21;90.13;99194.09;5106202;28;20467;-68
2023/01/08 00:43:18;;;;;;;3.00;2.70;;;;;;;10.22;90.75;99194.91;5101310;28;20477;-67
2023/01/08 00:45:45;;;;;;;3.23;2.93;;;;;;;10.20;90.59;99199.59;5099931;28;20474;-67
2023/01/08 00:48:12;;;;;;;3.83;3.10;;;;;;;10.21;90.48;99182.53;5101178;28;20456;-68
2023/01/08 00:50:38;;;;;;;3.50;3.13;;;;;;;10.24;90.46;99187.56;5099344;28;20501;-68
2023/01/08 00:53:05;;;;;;;3.77;3.10;;;;;;;10.21;90.57;99193.22;5100975;28;20431;-66
2023/01/08 00:55:33;;;;;;;4.10;3.47;;;;;;;10.31;90.52;99199.25;5103186;28;20503;-68
2023/01/08 00:57:59;;;;;;;4.03;2.93;;;;;;;10.43;90.28;99186.47;5104786;28;20455;-68
2023/01/08 01:00:27;;;;;;;3.73;3.03;;;;;;;10.32;90.78;99185.78;5103442;28;20451;-68
2023/01/08 01:02:54;;;;;;;5.20;3.40;;;;;;;10.24;91.37;99184.91;5105012;28;20454;-67
2023/01/08 01:05:20;;;;;;;4.50;3.50;;;;;;;10.23;91.18;99176.06;5104242;28;20427;-68
2023/01/08 01:07:47;;;;;;;3.30;3.00;;;;;;;10.40;90.79;99174.28;5104600;28;20456;-66
2023/01/08 01:10:15;;;;;;;3.13;2.80;;;;;;;10.32;91.07;99169.75;5102964;28;20469;-67
2023/01/08 01:12:43;;;;;;;3.47;2.93;;;;;;;10.38;91.09;99170.09;5104739;28;20423;-67
2023/01/08 01:15:12;;;;;;;4.93;3.43;;;;;;;10.31;91.18;99164.53;5103621;28;20498;-69
2023/01/08 01:17:39;;;;;;;4.30;2.97;;;;;;;10.27;91.02;99163.19;5104168;28;20492;-66
2023/01/08 01:20:07;;;;;;;5.47;3.10;;;;;;;10.44;91.00;99175.59;5103915;28;20838;-68
2023/01/08 01:22:34;;;;;;;4.20;3.80;;;;;;;10.41;91.21;99162.56;5103996;28;20479;-68
2023/01/08 01:25:01;;;;;;;3.87;3.30;;;;;;;10.40;90.98;99163.59;5104589;28;20454;-68
2023/01/08 01:27:28;;;;;;;3.87;3.23;;;;;;;10.42;91.20;99168.78;5103504;28;20482;-68
2023/01/08 01:29:56;;;;;;;6.13;3.20;;;;;;;10.40;91.49;99176.09;5103944;28;20947;-67
2023/01/08 01:32:23;;;;;;;3.50;2.97;;;;;;;10.34;92.20;99169.59;5103690;28;20501;-66
2023/01/08 01:34:49;;;;;;;4.03;2.80;;;;;;;10.30;92.61;99178.91;5104195;28;20471;-66
2023/01/08 01:37:16;;;;;;;4.20;2.97;;;;;;;10.31;92.67;99176.09;5103102;28;20506;-67
2023/01/08 01:39:43;;;;;;;3.10;2.80;;;;;;;10.31;92.59;99176.09;5103942;28;20487;-68
2023/01/08 01:42:38;;;;;;;5.67;3.87;;;;;;;10.36;92.71;99164.91;5117988;28;20474;-66
2023/01/08 01:45:17;;;;;;;3.10;2.60;;;;;;;10.28;93.35;99154.19;5123579;28;20443;-66
2023/01/08 01:47:46;;;;;;;3.67;2.67;;;;;;;10.29;93.31;99155.84;5111478;28;20494;-67
2023/01/08 01:50:15;;;;;;;2.80;2.50;;;;;;;10.33;93.33;99155.41;5102067;28;20644;-68
2023/01/08 01:52:43;;;;;;;3.37;2.97;;;;;;;10.32;93.02;99159.06;5104014;28;20506;-68
2023/01/08 01:55:12;;;;;;;3.93;2.83;;;;;;;10.30;93.32;99166.38;5103267;28;20478;-67
2023/01/08 01:57:39;;;;;;;3.80;2.90;;;;;;;10.29;93.43;99162.03;5103693;28;20473;-67
2023/01/08 02:00:09;;;;;;;3.67;3.33;;;;;;;10.29;93.36;99151.34;5103120;28;20482;-66
2023/01/08 02:02:35;;;;;;;3.43;2.93;;;;;;;10.33;93.27;99151.91;5102981;28;20468;-67
2023/01/08 02:05:02;;;;;;;2.80;2.53;;;;;;;10.27;93.69;99157.88;5103354;28;20462;-66
2023/01/08 02:07:34;;;;;;;3.00;2.00;;;;;;;10.25;93.86;99168.72;5092566;28;20487;-65
2023/01/08 02:10:04;;;;;;;3.30;2.90;;;;;;;10.38;93.06;99148.72;5082803;28;20441;-66
2023/01/08 02:12:33;;;;;;;3.73;2.43;;;;;;;10.28;93.27;99151.53;5090235;28;20534;-65
2023/01/08 02:15:04;;;;;;;3.07;2.57;;;;;;;10.29;93.70;99161.19;5123060;28;20478;-67
2023/01/08 02:17:37;;;;;;;3.60;2.97;;;;;;;10.41;93.25;99161.75;5122766;28;20470;-68
2023/01/08 02:20:10;;;;;;;4.10;2.43;;;;;;;10.34;93.84;99159.72;5122813;28;20431;-68
2023/01/08 02:22:46;;;;;;;3.30;3.00;;;;;;;10.29;93.77;99158.53;5123501;28;20474;-68
2023/01/08 02:25:18;;;;;;;3.40;3.10;;;;;;;10.39;93.56;99163.75;5102021;28;20533;-68
2023/01/08 02:27:49;;;;;;;3.00;2.77;;;;;;;10.32;93.67;99153.72;5102302;28;20454;-67
2023/01/08 02:30:16;;;;;;;2.97;2.60;;;;;;;10.28;94.00;99159.53;5102023;28;20632;-66
2023/01/08 02:32:42;;;;;;;2.77;2.47;;;;;;;10.40;93.67;99154.72;5102792;28;20463;-66
2023/01/08 02:35:11;;;;;;;3.10;2.80;;;;;;;10.32;94.52;99151.03;5101885;28;20493;-67
2023/01/08 02:37:38;;;;;;;3.40;2.40;;;;;;;10.44;93.86;99140.88;5101960;28;20619;-67
2023/01/08 02:40:12;;;;;;;3.17;2.70;;;;;;;10.38;94.07;99140.69;5102367;28;20487;-68
2023/01/08 02:42:45;;;;;;;3.13;2.37;;;;;;;10.31;94.54;99144.06;5102135;28;20490;-67
2023/01/08 02:45:21;;;;;;;3.30;3.00;;;;;;;10.21;94.97;99147.81;5104891;28;20457;-66
2023/01/08 02:47:50;;;;;;;2.90;2.40;;;;;;;10.26;94.67;99145.50;5108179;28;20443;-65
2023/01/08 02:50:21;;;;;;;3.00;2.70;;;;;;;10.30;94.80;99134.31;5100849;28;20529;-65
2023/01/08 02:52:55;;;;;;;3.40;2.30;;;;;;;10.26;94.90;99129.47;5101817;28;21628;-65
2023/01/08 02:55:23;;;;;;;2.43;2.23;;;;;;;10.34;94.75;99135.69;5101666;28;20494;-66
2023/01/08 02:57:50;;;;;;;3.20;2.40;;;;;;;10.34;95.09;99119.66;5102246;28;20463;-67
2023/01/08 03:00:20;;;;;;;3.63;2.60;;;;;;;10.29;95.06;99132.63;5101237;28;20467;-67
2023/01/08 03:02:47;;;;;;;3.03;2.27;;;;;;;10.28;95.82;99127.50;5101914;28;20447;-66
2023/01/08 03:05:21;;;;;;;3.97;2.50;;;;;;;10.29;95.48;99123.81;5101592;28;20432;-66
2023/01/08 03:07:48;;;;;;;2.80;2.60;;;;;;;10.37;95.24;99113.16;5102046;28;20460;-66
2023/01/08 03:10:15;;;;;;;2.57;2.33;;;;;;;10.40;94.93;99114.63;5101509;28;20428;-66
2023/01/08 03:12:48;;;;;;;4.47;2.20;;;;;;;10.33;95.42;99117.16;5101914;28;20440;-66
2023/01/08 03:15:21;;;;;;;3.17;2.63;;;;;;;10.22;95.63;99106.78;5101185;28;20556;-67
2023/01/08 03:17:50;;;;;;;2.40;2.20;;;;;;;10.18;96.14;99108.94;5101206;28;20448;-66
2023/01/08 03:20:19;;;;;;;3.10;2.43;;;;;;;10.23;96.09;99106.59;5101121;28;20447;-66
2023/01/08 03:22:49;;;;;;;3.40;2.40;;;;;;;10.29;95.96;99107.78;5101245;28;20489;-65
2023/01/08 03:25:18;;;;;;;3.63;2.90;;;;;;;10.24;95.75;99104.75;5101028;28;20530;-66
2023/01/08 03:27:47;;;;;;;2.97;2.30;;;;;;;10.14;96.18;99105.78;5101673;28;20452;-66
2023/01/08 03:30:15;;;;;;;2.77;2.40;;;;;;;10.29;95.91;99099.75;5100756;28;20475;-66
2023/01/08 03:32:44;;;;;;;2.40;2.17;;;;;;;10.28;95.63;99100.78;5100838;28;20788;-67
2023/01/08 03:35:12;;;;;;;2.83;2.60;;;;;;;10.25;96.16;99106.44;5100776;28;20471;-67
2023/01/08 03:37:41;;;;;;;2.33;1.93;;;;;;;10.24;96.05;99099.41;5101556;28;20562;-67
2023/01/08 03:40:10;;;;;;;3.77;2.23;;;;;;;10.31;95.69;99103.97;5100327;28;20530;-67
2023/01/08 03:42:37;;;;;;;2.40;2.03;;;;;;;10.21;96.17;99097.94;5101109;28;20535;-66
2023/01/08 03:45:04;;;;;;;3.60;3.03;;;;;;;10.26;96.18;99094.75;5100752;28;20465;-68
2023/01/08 03:47:32;;;;;;;2.17;1.90;;;;;;;10.23;96.35;99084.41;5100421;28;21008;-68
2023/01/08 03:50:02;;;;;;;2.23;2.03;;;;;;;10.27;95.99;99089.22;5100428;28;20467;-67
2023/01/08 03:52:31;;;;;;;2.33;2.07;;;;;;;10.33;95.82;99079.78;5094928;28;20474;-68
2023/01/08 03:54:58;;;;;;;2.97;2.20;;;;;;;10.32;95.73;99073.56;5086999;28;20450;-68
2023/01/08 03:57:25;;;;;;;2.50;2.30;;;;;;;10.37;95.48;99073.06;5100370;28;20486;-68
2023/01/08 03:59:51;;;;;;;3.60;2.17;;;;;;;10.27;95.68;99075.06;5101140;28;20443;-69
2023/01/08 04:02:18;;;;;;;2.73;1.80;;;;;;;10.35;95.63;99069.75;5100226;28;20483;-69
2023/01/08 04:04:45;;;;;;;3.23;2.10;;;;;;;10.26;96.05;99062.69;5100605;28;20447;-69
2023/01/08 04:07:13;;;;;;;3.20;2.10;;;;;;;10.24;96.89;99070.91;5100502;28;20878;-69
2023/01/08 04:09:40;;;;;;;2.30;1.97;;;;;;;10.32;97.29;99072.75;5101673;28;20423;-68
2023/01/08 04:12:07;;;;;;;2.43;2.10;;;;;;;10.24;97.54;99062.03;5100448;28;20499;-69
2023/01/08 04:14:33;;;;;;;2.17;1.83;;;;;;;10.24;98.45;99059.34;5101526;28;20451;-67
2023/01/08 04:17:00;;;;;;;3.10;1.77;;;;;;;10.10;98.37;99056.38;5100206;28;20499;-68
2023/01/08 04:19:26;;;;;;;4.70;1.73;;;;;;;10.09;98.83;99054.69;5101274;28;20432;-68
2023/01/08 04:21:53;;;;;;;2.20;1.87;;;;;;;10.16;98.59;99050.34;5100533;28;21043;-68
2023/01/08 04:24:21;;;;;;;2.00;1.80;;;;;;;10.14;98.80;99044.34;5101346;28;20503;-67
2023/01/08 04:26:48;;;;;;;3.47;1.90;;;;;;;10.17;98.33;99057.38;5100449;28;20503;-68
2023/01/08 04:29:15;;;;;;;3.27;2.23;;;;;;;10.17;98.43;99053.84;5101953;28;20427;-67
2023/01/08 04:31:41;;;;;;;2.83;1.80;;;;;;;10.20;98.62;99058.03;5103960;28;20486;-67
2023/01/08 04:34:09;;;;;;;2.80;2.20;;;;;;;10.21;98.12;99046.31;5105414;28;20419;-68
2023/01/08 04:36:36;;;;;;;5.50;1.67;;;;;;;10.20;98.09;99045.50;5104516;28;20511;-68
2023/01/08 04:39:03;;;;;;;2.00;1.80;;;;;;;10.18;97.96;99048.34;5105303;28;20503;-68
2023/01/08 04:41:31;;;;;;;2.50;2.10;;;;;;;10.21;98.30;99049.00;5103884;28;20475;-68
2023/01/08 04:43:57;;;;;;;2.53;1.90;;;;;;;10.10;98.60;99050.19;5105331;28;20461;-66
2023/01/08 04:46:24;;;;;;;2.17;1.50;;;;;;;10.12;98.46;99041.00;5103249;28;20513;-68
2023/01/08 04:48:50;;;;;;;2.10;1.83;;;;;;;10.09;98.49;99057.38;5106966;28;21003;-68
2023/01/08 04:51:17;;;;;;;2.93;2.40;;;;;;;10.16;98.28;99042.34;5123491;28;21075;-68
2023/01/08 04:53:45;;;;;;;2.33;2.10;;;;;;;10.19;97.91;99035.84;5125317;28;20875;-68
2023/01/08 04:56:11;;;;;;;2.40;1.80;;;;;;;10.09;98.33;99035.16;5124351;28;20486;-68
2023/01/08 04:58:40;;;;;;;2.53;1.60;;;;;;;10.15;97.66;99034.47;5113980;28;20446;-67
2023/01/08 05:01:11;;;;;;;2.40;1.60;;;;;;;10.27;97.32;99034.97;5123500;28;20474;-66
2023/01/08 05:03:38;;;;;;;3.40;1.93;;;;;;;10.13;97.76;99036.50;5125395;28;20441;-67
2023/01/08 05:06:06;;;;;;;3.50;1.70;;;;;;;10.22;97.43;99023.97;5124503;28;20549;-66
2023/01/08 05:08:32;;;;;;;2.60;2.10;;;;;;;10.11;98.21;99017.13;5121254;28;20447;-67
2023/01/08 05:10:59;;;;;;;4.00;2.23;;;;;;;10.14;97.55;99014.97;5103472;28;20987;-66
2023/01/08 05:13:26;;;;;;;2.63;1.97;;;;;;;10.23;97.31;99014.97;5107333;28;20431;-66
2023/01/08 05:15:54;;;;;;;2.33;1.40;;;;;;;10.21;97.05;99011.59;5110052;28;20482;-66
2023/01/08 05:18:21;;;;;;;4.20;2.50;;;;;;;10.20;97.47;99012.63;5104583;28;20455;-65
2023/01/08 05:20:47;;;;;;;2.57;1.50;;;;;;;10.22;96.95;99006.09;5102967;28;20518;-66
2023/01/08 05:23:14;;;;;;;4.20;1.90;;;;;;;10.22;96.94;99010.63;5104014;28;20684;-66
2023/01/08 05:25:40;;;;;;;3.03;2.00;;;;;;;10.17;97.41;99016.44;5103855;28;20467;-67
2023/01/08 05:28:07;;;;;;;2.40;1.63;;;;;;;10.23;97.41;99014.97;5104077;28;20494;-67
2023/01/08 05:30:34;;;;;;;5.30;2.23;;;;;;;10.09;98.37;99006.63;5103188;28;20491;-66
2023/01/08 05:33:02;;;;;;;2.73;1.93;;;;;;;10.16;97.80;99007.63;5103678;28;20462;-66
2023/01/08 05:35:29;;;;;;;2.27;1.60;;;;;;;10.24;97.77;98997.91;5103381;28;20854;-67
2023/01/08 05:37:55;;;;;;;2.90;1.87;;;;;;;10.15;98.10;99003.25;5103989;28;20506;-67
2023/01/08 05:40:22;;;;;;;3.37;2.00;;;;;;;10.12;98.91;99011.63;5102771;28;20540;-67
2023/01/08 05:42:48;;;;;;;2.13;1.57;;;;;;;10.18;98.67;99004.78;5102967;28;20455;-67
2023/01/08 05:45:15;;;;;;;2.40;1.73;;;;;;;10.16;98.72;99007.63;5102704;28;20439;-67
2023/01/08 05:47:42;;;;;;;1.83;1.70;;;;;;;10.21;98.43;98998.25;5103885;28;20515;-67
2023/01/08 05:50:10;;;;;;;1.60;1.33;;;;;;;10.17;99.43;99005.75;5102546;28;20466;-68
2023/01/08 05:52:37;;;;;;;2.03;1.73;;;;;;;10.06;100.00;99001.59;5103252;28;20538;-67
2023/01/08 05:55:04;;;;;;;1.80;1.53;;;;;;;9.98;100.00;99007.81;5103717;28;20447;-66
2023/01/08 05:57:30;;;;;;;7.03;2.03;;;;;;;10.06;100.00;99001.59;5103174;28;20511;-66
2023/01/08 05:59:57;;;;;;;2.57;2.00;;;;;;;10.03;100.00;98999.25;5103442;28;20527;-66
2023/01/08 06:02:23;;;;;;;2.30;1.60;;;;;;;9.91;100.00;98997.94;5102166;28;20518;-66
2023/01/08 06:04:50;;;;;;;2.70;1.80;;;;;;;9.89;100.00;99005.28;5103618;28;20446;-65
2023/01/08 06:07:18;;;;;;;2.37;1.90;;;;;;;9.87;100.00;99005.44;5102532;28;20913;-66
2023/01/08 06:09:45;;;;;;;3.33;2.20;;;;;;;9.91;100.00;98995.28;5103061;28;20502;-67
2023/01/08 06:12:12;;;;;;;2.73;1.63;;;;;;;9.92;100.00;99008.47;5102071;28;20511;-67
2023/01/08 06:14:38;;;;;;;2.00;1.80;;;;;;;9.93;100.00;99004.78;5102868;28;20435;-67
2023/01/08 06:17:05;;;;;;;3.10;2.13;;;;;;;9.82;100.00;98997.09;5102392;28;20555;-67
2023/01/08 06:19:31;;;;;;;3.30;1.83;;;;;;;9.82;100.00;98999.78;5102511;28;20444;-66
2023/01/08 06:21:58;;;;;;;3.03;2.30;;;;;;;9.87;100.00;99008.13;5102201;28;20513;-66
2023/01/08 06:24:26;;;;;;;2.10;1.90;;;;;;;9.83;100.00;99003.31;5102866;28;20459;-68
2023/01/08 06:26:53;;;;;;;2.50;1.73;;;;;;;9.85;100.00;99001.28;5102348;28;21042;-68
2023/01/08 06:29:19;;;;;;;3.53;1.47;;;;;;;9.79;100.00;99002.78;5102909;28;20486;-67
2023/01/08 06:31:46;;;;;;;1.80;1.60;;;;;;;9.85;100.00;99006.63;5101349;28;20475;-68
2023/01/08 06:34:13;;;;;;;2.20;1.30;;;;;;;9.76;100.00;98995.94;5103286;28;20463;-67
2023/01/08 06:36:39;;;;;;;1.60;1.33;;;;;;;9.75;100.00;98996.94;5101752;28;20765;-68
2023/01/08 06:39:06;;;;;;;1.40;1.30;;;;;;;9.76;100.00;98997.78;5102651;28;20491;-68
2023/01/08 06:41:34;;;;;;;2.70;1.60;;;;;;;9.79;100.00;98992.94;5101806;28;20503;-67
2023/01/08 06:44:01;;;;;;;2.80;1.20;;;;;;;9.71;100.00;98995.59;5102916;28;20465;-67
2023/01/08 06:46:28;;;;;;;2.30;1.50;;;;;;;9.78;100.00;98991.28;5101013;28;20522;-67
2023/01/08 06:48:54;;;;;;;1.87;1.50;;;;;;;9.71;100.00;98995.59;5102233;28;20447;-67
2023/01/08 06:51:21;;;;;;;1.20;1.00;;;;;;;9.71;100.00;98992.94;5101403;28;20523;-67
2023/01/08 06:53:48;;;;;;;1.87;1.40;;;;;;;9.66;100.00;98989.94;5102375;28;20461;-67
2023/01/08 06:56:15;;;;;;;1.30;1.20;;;;;;;9.71;100.00;98992.94;5101351;28;21064;-66
2023/01/08 06:58:43;;;;;;;2.60;1.70;;;;;;;9.68;100.00;98987.94;5102191;28;20486;-67
2023/01/08 07:01:13;;;;;;;1.30;1.10;;;;;;;9.71;100.00;98989.44;5101066;28;20481;-66
2023/01/08 07:03:40;;;;;;;1.40;1.30;;;;;;;9.70;100.00;98990.44;5101974;28;20511;-67
2023/01/08 07:06:07;;;;;;;2.67;1.43;;;;;;;9.70;100.00;98982.44;5101427;28;20499;-67
2023/01/08 07:08:34;;;;;;;6.33;1.50;;;;;;;9.64;100.00;98983.09;5102051;28;20451;-67
2023/01/08 07:11:02;;;;;;;1.47;1.37;;;;;;;9.66;100.00;98978.44;5101457;28;20487;-67
2023/01/08 07:13:29;;;;;;;1.73;1.30;;;;;;;9.65;100.00;98990.09;5101748;28;20518;-67
2023/01/08 07:15:57;;;;;;;1.50;1.40;;;;;;;9.75;100.00;98988.94;5101070;28;20479;-67
2023/01/08 07:18:24;;;;;;;1.20;1.10;;;;;;;9.72;100.00;98991.09;5100092;28;20507;-66
2023/01/08 07:20:50;;;;;;;1.60;1.20;;;;;;;9.72;100.00;98991.09;5080705;28;20511;-67
2023/01/08 07:23:17;;;;;;;1.30;1.10;;;;;;;9.66;100.00;98983.78;5081288;28;20452;-66
2023/01/08 07:25:44;;;;;;;1.70;1.20;;;;;;;9.70;100.00;98993.94;5081199;28;20472;-66
2023/01/08 07:28:12;;;;;;;3.50;1.10;;;;;;;9.70;100.00;98993.09;5081895;28;20476;-66
2023/01/08 07:30:39;;;;;;;1.57;1.10;;;;;;;9.68;100.00;98985.25;5080708;28;20474;-67
2023/01/08 07:33:07;;;;;;;1.50;1.20;;;;;;;9.79;100.00;98986.75;5081141;28;20449;-65
2023/01/08 07:35:34;;;;;;;1.03;0.93;;;;;;;9.78;100.00;98999.28;5080915;28;20503;-65
2023/01/08 07:38:01;;;;;;;1.20;0.90;;;;;;;9.74;100.00;98995.28;5081327;28;20514;-65
2023/01/08 07:40:27;;;;;;;2.93;1.50;;;;;;;9.79;100.00;98998.28;5090828;28;20463;-66
2023/01/08 07:42:58;;;;;;;1.57;1.07;;;;;;;9.75;100.00;99002.28;5100565;28;21028;-65
2023/01/08 07:45:25;;;;;;;1.40;1.30;;;;;;;9.68;100.00;98993.25;5100223;28;20511;-64
2023/01/08 07:47:51;;;;;;;1.43;0.97;;;;;;;9.69;100.00;98999.47;5101658;28;20454;-64
2023/01/08 07:50:19;;;;;;;1.43;1.10;;;;;;;9.85;100.00;99007.47;5100206;28;20455;-65
2023/01/08 07:52:46;;;;;;;1.33;0.90;;;;;;;9.68;100.00;99000.44;5100182;28;20458;-66
2023/01/08 07:55:13;;;;;;;0.90;0.80;;;;;;;9.74;100.00;98991.78;5099712;28;20485;-65
2023/01/08 07:57:39;;;;;;;0.90;0.90;;;;;;;9.72;100.00;98996.44;5101539;28;20479;-65
2023/01/08 08:00:07;;;;;;;1.90;1.57;;;;;;;9.74;100.00;98995.28;5099892;28;20468;-63
2023/01/08 08:02:34;;;;;;;1.20;0.80;;;;;;;9.85;100.00;98990.63;5100918;28;20474;-64
2023/01/08 08:05:01;;;;;;;3.13;1.30;;;;;;;9.95;100.00;98994.78;5100909;28;20448;-64
2023/01/08 08:07:30;;;;;;;0.87;0.83;;;;;;;9.86;100.00;98994.94;5100546;28;20511;-63
2023/01/08 08:09:57;;;;;;;1.07;0.97;;;;;;;9.94;100.00;99001.09;5101219;28;20478;-64
2023/01/08 08:12:23;;;;;;;1.13;0.87;;;;;;;9.86;100.00;98992.28;5100516;28;20498;-63
2023/01/08 08:14:50;;;;;;;0.97;0.87;;;;;;;9.79;100.00;98986.75;5100879;28;20463;-63
2023/01/08 08:17:17;;;;;;;0.80;0.80;;;;;;;9.82;100.00;98989.09;5099811;28;20483;-66
2023/01/08 08:19:44;;;;;;;1.07;0.80;;;;;;;9.75;100.00;98991.59;5099940;28;20492;-65
2023/01/08 08:22:11;;;;;;;1.10;1.00;;;;;;;9.75;100.00;98990.78;5097747;28;20479;-65
2023/01/08 08:24:39;;;;;;;0.87;0.87;;;;;;;9.67;100.00;98991.63;5100723;28;20431;-66
2023/01/08 08:27:05;;;;;;;1.47;0.73;;;;;;;9.71;100.00;98984.09;5099498;28;20472;-63
2023/01/08 08:29:32;;;;;;;1.63;1.10;;;;;;;9.74;100.00;98978.44;5100776;28;20431;-61
2023/01/08 08:31:59;;;;;;;1.10;0.90;;;;;;;9.68;100.00;98982.59;5099864;28;20884;-61
2023/01/08 08:34:25;;;;;;;0.80;0.60;;;;;;;9.87;100.00;98980.59;5100725;28;20431;-61
2023/01/08 08:36:52;;;;;;;0.80;0.80;;;;;;;9.81;100.00;98976.78;5099668;28;20530;-61
2023/01/08 08:39:19;;;;;;;1.07;0.97;;;;;;;9.88;100.00;98968.94;5100961;28;20474;-65
2023/01/08 08:41:47;;;;;;;1.50;1.10;;;;;;;9.87;100.00;98968.06;5098344;28;20483;-65
2023/01/08 08:44:13;;;;;;;2.87;1.00;;;;;;;9.94;99.83;98971.75;5100759;28;20444;-65
2023/01/08 08:46:40;;;;;;;1.00;0.90;;;;;;;9.97;99.54;98970.59;5098878;28;20495;-66
2023/01/08 08:49:07;;;;;;;0.70;0.63;;;;;;;10.04;99.13;98971.56;5100536;28;20453;-65
2023/01/08 08:51:33;;;;;;;1.40;0.97;;;;;;;10.03;99.21;98977.91;5099369;28;20510;-66
2023/01/08 08:54:00;;;;;;;1.30;0.90;;;;;;;9.99;99.11;98987.25;5100008;28;20447;-67
2023/01/08 08:56:28;;;;;;;1.90;0.73;;;;;;;10.12;99.19;98995.59;5099743;28;20467;-66
2023/01/08 08:58:57;;;;;;;1.47;0.80;;;;;;;10.32;98.71;98998.75;5100185;28;20440;-66
2023/01/08 09:01:24;;;;;;;1.27;0.90;;;;;;;9.96;100.00;98990.25;5096676;28;20499;-65
2023/01/08 09:03:51;;;;;;;2.60;0.93;;;;;;;9.93;100.00;98994.13;5099136;28;20479;-65
2023/01/08 09:06:17;;;;;;;1.20;1.03;;;;;;;9.93;100.00;98985.25;5099488;28;20503;-66
2023/01/08 09:08:44;;;;;;;2.27;1.10;;;;;;;10.01;100.00;98990.59;5100114;28;20977;-67
2023/01/08 09:11:10;;;;;;;1.30;1.17;;;;;;;9.76;100.00;98993.28;5099242;28;20491;-65
2023/01/08 09:13:38;;;;;;;1.90;1.30;;;;;;;9.74;100.00;99003.28;5100667;28;20432;-68
2023/01/08 09:16:06;;;;;;;1.50;0.97;;;;;;;9.50;100.00;99012.09;5098757;28;20487;-67
2023/01/08 09:18:33;;;;;;;1.30;1.20;;;;;;;9.40;100.00;99009.56;5103060;28;20523;-69
2023/01/08 09:21:04;;;;;;;1.50;1.03;;;;;;;9.59;100.00;99000.44;5103257;28;20482;-70
2023/01/08 09:23:31;;;;;;;3.23;1.33;;;;;;;9.49;100.00;98997.06;5104310;28;20462;-70
2023/01/08 09:25:59;;;;;;;1.77;1.67;;;;;;;9.57;100.00;98988.28;5102334;28;20510;-70
2023/01/08 09:28:26;;;;;;;1.27;1.17;;;;;;;9.40;100.00;98993.56;5100775;28;20448;-70
2023/01/08 09:30:53;;;;;;;1.73;1.40;;;;;;;9.33;100.00;98992.56;5101938;28;20475;-69
2023/01/08 09:33:21;;;;;;;2.10;1.63;;;;;;;9.27;100.00;98997.69;5102827;28;20451;-69
2023/01/08 09:35:48;;;;;;;1.80;1.20;;;;;;;9.60;100.00;98978.09;5102526;28;20502;-70
2023/01/08 09:38:14;;;;;;;1.27;1.10;;;;;;;9.49;100.00;98974.91;5100036;28;20483;-70
2023/01/08 09:40:43;;;;;;;2.80;1.90;;;;;;;9.54;100.00;98973.41;5102414;28;20471;-70
2023/01/08 09:43:16;;;;;;;3.07;1.70;;;;;;;9.47;100.00;98980.41;5101751;28;20463;-69
2023/01/08 09:45:44;;;;;;;1.70;1.37;;;;;;;9.55;100.00;98980.41;5098885;28;20493;-69
2023/01/08 09:48:13;;;;;;;1.10;1.00;;;;;;;9.54;100.00;98985.91;5101558;28;20505;-68
2023/01/08 09:50:41;;;;;;;3.70;1.10;;;;;;;9.73;100.00;98990.94;5099773;28;20467;-68
2023/01/08 09:53:11;;;;;;;1.20;1.10;;;;;;;9.53;100.00;98990.44;5101058;28;20483;-68
2023/01/08 09:55:39;;;;;;;2.80;1.80;;;;;;;9.50;100.00;98997.94;5101809;28;20494;-69
2023/01/08 09:58:10;;;;;;;2.03;1.83;;;;;;;9.72;100.00;98993.75;5102377;28;20487;-69
2023/01/08 10:00:36;;;;;;;1.70;1.60;;;;;;;9.69;100.00;98996.78;5085850;28;20475;-68
2023/01/08 10:03:03;;;;;;;2.77;1.40;;;;;;;9.94;100.00;98990.44;5098482;28;20458;-69
2023/01/08 10:05:30;;;;;;;5.37;1.97;;;;;;;9.65;100.00;98982.91;5102103;28;20474;-68
2023/01/08 10:07:58;;;;;;;2.03;1.33;;;;;;;9.69;100.00;98978.94;5101527;28;20907;-68
2023/01/08 10:10:28;;;;;;;1.60;1.23;;;;;;;9.64;100.00;98978.59;5101929;28;20443;-69
2023/01/08 10:12:55;;;;;;;2.43;1.23;;;;;;;9.46;99.05;98962.75;5102209;28;20455;-68
2023/01/08 10:15:23;;;;;;;1.40;1.10;;;;;;;9.61;98.99;98973.59;5100803;28;20434;-70
2023/01/08 10:17:54;;;;;;;1.47;0.97;;;;;;;10.53;95.25;98973.34;5102163;28;20583;-69
2023/01/08 10:20:22;;;;;;;2.60;1.27;;;;;;;11.60;87.14;98973.63;5093761;28;20495;-68
2023/01/08 10:22:53;;;;;;;3.73;1.30;;;;;;;12.79;77.68;98970.31;5100709;28;20448;-68
2023/01/08 10:25:22;;;;;;;3.90;2.40;;;;;;;12.98;74.97;98963.53;5101536;28;20437;-67
2023/01/08 10:27:50;;;;;;;1.50;1.07;;;;;;;13.19;75.46;98973.47;5099789;28;20462;-70
2023/01/08 10:30:19;;;;;;;1.17;1.00;;;;;;;13.07;73.12;98969.63;5091863;28;20469;-70
2023/01/08 10:32:52;;;;;;;1.73;1.20;;;;;;;14.07;69.97;98968.78;5101736;28;20481;-71
2023/01/08 10:35:20;;;;;;;4.30;1.53;;;;;;;13.98;67.40;98977.22;5100573;28;20498;-71
2023/01/08 10:37:49;;;;;;;2.80;1.70;;;;;;;13.25;68.27;98964.69;5100466;28;20553;-69
2023/01/08 10:40:24;;;;;;;1.70;1.30;;;;;;;14.11;66.63;98971.91;5101195;28;20557;-72
2023/01/08 10:42:51;;;;;;;2.40;1.03;;;;;;;13.84;66.66;98963.66;5100954;28;20454;-69
2023/01/08 10:45:21;;;;;;;3.50;1.87;;;;;;;13.16;68.77;98955.94;5098915;28;20977;-70
2023/01/08 10:47:49;;;;;;;2.20;1.40;;;;;;;12.71;70.80;98940.94;5100437;28;20472;-69
2023/01/08 10:50:20;;;;;;;3.73;1.40;;;;;;;12.42;72.82;98951.47;5100296;28;20955;-60
2023/01/08 10:52:53;;;;;;;2.57;1.77;;;;;;;12.13;72.86;98946.91;5100364;28;20479;-65
2023/01/08 10:55:26;;;;;;;2.57;1.30;;;;;;;12.57;69.89;98939.94;5093280;28;20488;-65
2023/01/08 10:57:57;;;;;;;5.20;1.23;;;;;;;12.69;67.54;98932.22;5098110;28;20498;-65
2023/01/08 11:00:26;;;;;;;3.93;1.30;;;;;;;12.46;67.69;98940.38;5099571;28;20453;-64
2023/01/08 11:02:53;;;;;;;3.33;1.20;;;;;;;12.23;66.96;98939.44;5101284;28;20450;-65
2023/01/08 11:05:19;;;;;;;6.93;1.33;;;;;;;12.00;70.25;98930.66;5100863;28;20438;-64
2023/01/08 11:07:52;;;;;;;4.20;1.17;;;;;;;11.80;71.59;98938.31;5098434;28;20445;-65
2023/01/08 11:10:25;;;;;;;3.17;1.27;;;;;;;11.14;75.14;98933.44;5100287;28;20460;-65
2023/01/08 11:12:56;;;;;;;8.33;2.70;;;;;;;11.22;74.74;98936.09;5100790;28;20521;-64
2023/01/08 11:15:34;;;;;;;6.33;1.93;;;;;;;11.02;76.23;98935.69;5099395;28;20517;-64
2023/01/08 11:18:13;;;;;;;5.63;1.50;;;;;;;11.35;75.02;98932.00;5098470;28;20498;-64
2023/01/08 11:20:40;;;;;;;6.60;1.97;;;;;;;11.46;74.78;98935.09;5099534;28;20557;-65
2023/01/08 11:23:15;;;;;;;2.87;1.10;;;;;;;12.25;71.58;98936.59;5098184;28;20450;-65
2023/01/08 11:25:45;;;;;;;3.90;1.37;;;;;;;12.29;70.57;98926.31;5099645;28;20497;-65
2023/01/08 11:28:15;;;;;;;4.70;1.57;;;;;;;12.11;71.84;98932.06;5100522;28;20457;-65
2023/01/08 11:30:44;;;;;;;8.97;1.40;;;;;;;12.45;70.34;98915.44;5099697;28;20477;-64
2023/01/08 11:33:15;;;;;;;2.97;1.20;;;;;;;13.54;67.42;98925.34;5100347;28;20455;-65
2023/01/08 11:35:46;;;;;;;4.30;1.83;;;;;;;13.96;65.07;98925.50;5097675;28;20547;-65
2023/01/08 11:38:13;;;;;;;2.83;1.00;;;;;;;13.54;64.92;98925.34;5094929;28;20491;-64